createdAt,value
2019-02-28T00:00:29.530Z,0.10
2019-02-28T00:02:57.946Z,0.10
2019-02-28T00:05:26.411Z,0.10
2019-02-28T00:07:54.813Z,0.10
2019-02-28T00:10:23.270Z,0.10
2019-02-28T00:12:51.675Z,0.00
2019-02-28T00:15:20.071Z,0.00
2019-02-28T00:17:48.518Z,0.00
2019-02-28T00:20:16.905Z,0.00
2019-02-28T00:22:48.357Z,0.10
2019-02-28T00:25:15.435Z,0.00
2019-02-28T00:27:43.842Z,0.00
2019-02-28T00:30:16.166Z,0.00
2019-02-28T00:32:44.585Z,0.00
2019-02-28T00:35:13.394Z,0.00
2019-02-28T00:37:42.458Z,0.00
2019-02-28T00:40:11.314Z,-0.10
2019-02-28T00:42:39.714Z,-0.10
2019-02-28T00:45:13.849Z,-0.10
2019-02-28T00:47:42.271Z,-0.20
2019-02-28T00:50:10.917Z,-0.20
2019-02-28T00:52:39.303Z,-0.20
2019-02-28T00:55:10.149Z,-0.20
2019-02-28T00:57:38.555Z,-0.20
2019-02-28T01:00:10.210Z,-0.30
2019-02-28T01:02:38.674Z,-0.30
2019-02-28T01:05:07.230Z,-0.40
2019-02-28T01:07:35.622Z,-0.40
2019-02-28T01:10:07.098Z,-0.40
2019-02-28T01:12:35.506Z,-0.40
2019-02-28T01:15:07.180Z,-0.40
2019-02-28T01:17:36.035Z,-0.40
2019-02-28T01:20:05.886Z,-0.50
2019-02-28T01:22:34.310Z,-0.50
2019-02-28T01:25:02.729Z,-0.50
2019-02-28T01:27:31.118Z,-0.50
2019-02-28T01:29:59.543Z,-0.50
2019-02-28T01:32:28.031Z,-0.50
2019-02-28T01:34:56.421Z,-0.50
2019-02-28T01:37:24.842Z,-0.50
2019-02-28T01:39:53.259Z,-0.50
2019-02-28T01:42:21.655Z,-0.50
2019-02-28T01:44:50.130Z,-0.60
2019-02-28T01:47:19.982Z,-0.60
2019-02-28T01:49:48.730Z,-0.60
2019-02-28T01:52:17.204Z,-0.60
2019-02-28T01:54:45.598Z,-0.60
2019-02-28T01:57:14.279Z,-0.60
2019-02-28T01:59:42.669Z,-0.60
2019-02-28T02:02:11.073Z,-0.60
2019-02-28T02:04:39.518Z,-0.60
2019-02-28T02:07:07.966Z,-0.60
2019-02-28T02:09:36.367Z,-0.50
2019-02-28T02:12:04.848Z,-0.40
2019-02-28T02:14:33.258Z,-0.40
2019-02-28T02:17:01.951Z,-0.30
2019-02-28T02:19:30.534Z,-0.30
2019-02-28T02:21:58.930Z,-0.30
2019-02-28T02:24:27.926Z,-0.30
2019-02-28T02:26:57.331Z,-0.30
2019-02-28T02:29:25.741Z,-0.40
2019-02-28T02:31:54.199Z,-0.40
2019-02-28T02:34:24.255Z,-0.40
2019-02-28T02:36:54.294Z,-0.40
2019-02-28T02:39:22.910Z,-0.40
2019-02-28T02:41:51.320Z,-0.40
2019-02-28T02:44:19.726Z,-0.40
2019-02-28T02:46:48.149Z,-0.30
2019-02-28T02:49:19.897Z,-0.30
2019-02-28T02:51:50.337Z,-0.30
2019-02-28T02:54:19.891Z,-0.30
2019-02-28T02:56:46.951Z,-0.30
2019-02-28T02:59:15.370Z,-0.30
2019-02-28T03:01:43.788Z,-0.30
2019-02-28T03:04:12.260Z,-0.40
2019-02-28T03:06:40.659Z,-0.40
2019-02-28T03:09:09.903Z,-0.40
2019-02-28T03:11:39.198Z,-0.40
2019-02-28T03:14:07.590Z,-0.40
2019-02-28T03:16:36.232Z,-0.40
2019-02-28T03:19:04.706Z,-0.40
2019-02-28T03:21:33.134Z,-0.40
2019-02-28T03:24:01.555Z,-0.40
2019-02-28T03:26:29.939Z,-0.50
2019-02-28T03:28:58.511Z,-0.50
2019-02-28T03:31:26.940Z,-0.60
2019-02-28T03:33:55.339Z,-0.60
2019-02-28T03:36:23.727Z,-0.60
2019-02-28T03:38:52.134Z,-0.60
2019-02-28T03:41:20.539Z,-0.70
2019-02-28T03:43:48.938Z,-0.70
2019-02-28T03:46:17.375Z,-0.70
2019-02-28T03:48:45.853Z,-0.70
2019-02-28T03:51:14.261Z,-0.70
2019-02-28T03:53:42.659Z,-0.80
2019-02-28T03:56:14.321Z,-0.80
2019-02-28T03:58:43.007Z,-0.80
2019-02-28T04:01:11.811Z,-0.80
2019-02-28T04:03:40.306Z,-0.80
2019-02-28T04:06:08.690Z,-0.80
2019-02-28T04:08:37.111Z,-0.80
2019-02-28T04:11:05.507Z,-0.80
2019-02-28T04:13:33.923Z,-0.90
2019-02-28T04:16:09.163Z,-0.90
2019-02-28T04:18:32.517Z,-0.90
2019-02-28T04:21:00.915Z,-0.90
2019-02-28T04:23:35.694Z,-1.00
2019-02-28T04:25:59.443Z,-1.00
2019-02-28T04:28:27.842Z,-1.00
2019-02-28T04:30:56.254Z,-1.00
2019-02-28T04:33:24.679Z,-1.00
2019-02-28T04:35:53.063Z,-1.00
2019-02-28T04:38:21.515Z,-1.00
2019-02-28T04:40:49.943Z,-1.00
2019-02-28T04:43:18.342Z,-1.00
2019-02-28T04:45:46.758Z,-1.10
2019-02-28T04:48:15.169Z,-1.10
2019-02-28T04:50:43.832Z,-1.10
2019-02-28T04:53:12.222Z,-1.10
2019-02-28T04:55:40.622Z,-1.10
2019-02-28T04:58:09.043Z,-1.10
2019-02-28T05:00:38.076Z,-1.10
2019-02-28T05:03:07.326Z,-1.10
2019-02-28T05:05:35.731Z,-1.10
2019-02-28T05:08:05.722Z,-1.10
2019-02-28T05:10:34.447Z,-1.10
2019-02-28T05:13:02.850Z,-1.10
2019-02-28T05:15:31.243Z,-1.10
2019-02-28T05:17:59.666Z,-1.10
2019-02-28T05:20:28.070Z,-1.10
2019-02-28T05:22:59.282Z,-1.10
2019-02-28T05:25:26.866Z,-1.10
2019-02-28T05:27:55.261Z,-1.20
2019-02-28T05:30:23.755Z,-1.20
2019-02-28T05:32:52.137Z,-1.20
2019-02-28T05:35:25.477Z,-1.20
2019-02-28T05:40:27.417Z,-1.20
2019-02-28T05:42:58.396Z,-1.20
2019-02-28T05:45:25.959Z,-1.20
2019-02-28T05:47:54.395Z,-1.20
2019-02-28T05:50:22.821Z,-1.20
2019-02-28T05:52:51.246Z,-1.20
2019-02-28T05:55:24.466Z,-1.20
2019-02-28T05:57:49.758Z,-1.20
2019-02-28T06:00:25.369Z,-1.20
2019-02-28T06:02:58.034Z,-1.20
2019-02-28T06:05:24.798Z,-1.20
2019-02-28T06:07:53.203Z,-1.20
2019-02-28T06:10:24.656Z,-1.20
2019-02-28T06:12:51.723Z,-1.20
2019-02-28T06:15:20.131Z,-1.20
2019-02-28T06:17:48.535Z,-1.20
2019-02-28T06:20:18.050Z,-1.20
2019-02-28T06:22:46.541Z,-1.20
2019-02-28T06:25:22.210Z,-1.10
2019-02-28T06:27:49.129Z,-1.10
2019-02-28T06:30:17.014Z,-1.10
2019-02-28T06:32:45.402Z,-1.10
2019-02-28T06:35:17.749Z,-1.00
2019-02-28T06:37:44.246Z,-1.00
2019-02-28T06:40:14.895Z,-0.90
2019-02-28T06:42:43.464Z,-0.80
2019-02-28T06:45:15.318Z,-0.80
2019-02-28T06:47:48.032Z,-0.70
2019-02-28T06:50:14.967Z,-0.70
2019-02-28T06:52:43.370Z,-0.60
2019-02-28T06:55:13.445Z,-0.50
2019-02-28T06:57:41.908Z,-0.40
2019-02-28T07:00:16.738Z,-0.40
2019-02-28T07:02:45.148Z,-0.30
2019-02-28T07:05:13.710Z,-0.30
2019-02-28T07:07:42.115Z,-0.20
2019-02-28T07:10:15.319Z,-0.20
2019-02-28T07:12:43.732Z,-0.10
2019-02-28T07:15:13.318Z,0.00
2019-02-28T07:17:42.690Z,0.10
2019-02-28T07:20:16.459Z,0.20
2019-02-28T07:22:44.853Z,0.30
2019-02-28T07:25:13.876Z,0.40
2019-02-28T07:27:42.478Z,0.50
2019-02-28T07:30:19.303Z,0.60
2019-02-28T07:32:47.960Z,0.80
2019-02-28T07:35:16.566Z,0.90
2019-02-28T07:37:44.950Z,1.00
2019-02-28T07:40:16.255Z,1.10
2019-02-28T07:42:44.735Z,1.30
2019-02-28T07:45:14.286Z,1.40
2019-02-28T07:47:42.763Z,1.50
2019-02-28T07:50:12.905Z,1.60
2019-02-28T07:52:41.562Z,1.80
2019-02-28T07:55:34.005Z,1.90
2019-02-28T07:58:02.411Z,2.00
2019-02-28T08:00:30.814Z,2.30
2019-02-28T08:02:59.226Z,2.40
2019-02-28T08:05:46.958Z,2.70
2019-02-28T08:08:15.377Z,2.90
2019-02-28T08:10:43.847Z,3.20
2019-02-28T08:13:12.242Z,3.50
2019-02-28T08:15:40.649Z,3.60
2019-02-28T08:18:09.534Z,3.80
2019-02-28T08:20:38.170Z,4.00
2019-02-28T08:23:06.595Z,4.20
2019-02-28T08:25:34.987Z,4.40
2019-02-28T08:28:03.535Z,4.60
2019-02-28T08:30:33.938Z,4.90
2019-02-28T08:33:02.511Z,5.10
2019-02-28T08:35:34.868Z,5.30
2019-02-28T08:38:01.043Z,5.50
2019-02-28T08:40:29.485Z,5.80
2019-02-28T08:42:57.881Z,6.00
2019-02-28T08:45:26.296Z,6.30
2019-02-28T08:47:56.639Z,6.50
2019-02-28T08:50:27.980Z,6.70
2019-02-28T08:53:06.538Z,7.00
2019-02-28T08:55:38.478Z,7.20
2019-02-28T08:58:06.687Z,7.50
2019-02-28T09:00:37.528Z,7.70
2019-02-28T09:03:05.536Z,8.00
2019-02-28T09:05:34.012Z,8.30
2019-02-28T09:08:02.462Z,8.70
2019-02-28T09:10:30.954Z,9.00
2019-02-28T09:12:59.526Z,9.30
2019-02-28T09:15:31.030Z,9.60
2019-02-28T09:17:59.351Z,9.90
2019-02-28T09:20:28.138Z,10.20
2019-02-28T09:23:01.525Z,10.50
2019-02-28T09:25:27.109Z,10.70
2019-02-28T09:27:55.778Z,11.00
2019-02-28T09:30:36.232Z,11.40
2019-02-28T09:33:05.019Z,11.80
2019-02-28T09:35:33.410Z,12.30
2019-02-28T09:38:06.272Z,12.70
2019-02-28T09:40:32.202Z,13.00
2019-02-28T09:43:00.604Z,13.30
2019-02-28T09:45:30.750Z,13.50
2019-02-28T09:48:01.899Z,13.80
2019-02-28T09:50:29.360Z,13.90
2019-02-28T09:52:57.794Z,14.10
2019-02-28T09:55:26.189Z,14.30
2019-02-28T09:57:55.112Z,14.40
2019-02-28T10:00:27.524Z,14.60
2019-02-28T10:02:55.755Z,14.70
2019-02-28T10:05:24.191Z,14.80
2019-02-28T10:07:52.764Z,14.90
2019-02-28T10:10:28.826Z,15.00
2019-02-28T10:12:57.300Z,15.00
2019-02-28T10:15:26.061Z,15.10
2019-02-28T10:17:54.455Z,15.20
2019-02-28T10:20:30.296Z,15.40
2019-02-28T10:22:58.710Z,15.50
2019-02-28T10:25:27.110Z,15.60
2019-02-28T10:28:01.404Z,15.70
2019-02-28T10:30:31.575Z,15.80
2019-02-28T10:32:56.936Z,15.90
2019-02-28T10:35:25.334Z,16.00
2019-02-28T10:37:57.093Z,16.10
2019-02-28T10:40:27.724Z,16.20
2019-02-28T10:42:56.278Z,16.20
2019-02-28T10:45:25.621Z,16.30
2019-02-28T10:47:54.175Z,16.30
2019-02-28T10:50:32.107Z,16.30
2019-02-28T10:52:58.137Z,16.30
2019-02-28T10:55:26.869Z,16.40
2019-02-28T10:57:55.451Z,16.40
2019-02-28T11:00:36.042Z,16.50
2019-02-28T11:03:04.439Z,16.50
2019-02-28T11:05:57.607Z,16.60
2019-02-28T11:08:26.078Z,16.60
2019-02-28T11:10:54.590Z,16.70
2019-02-28T11:13:23.150Z,16.70
2019-02-28T11:15:51.726Z,16.70
2019-02-28T11:18:20.317Z,16.60
2019-02-28T11:20:48.788Z,16.60
2019-02-28T11:23:17.735Z,16.50
2019-02-28T11:25:46.498Z,16.50
2019-02-28T11:28:15.611Z,16.50
2019-02-28T11:30:45.917Z,16.50
2019-02-28T11:33:15.664Z,16.60
2019-02-28T11:35:44.310Z,16.70
2019-02-28T11:38:12.782Z,16.80
2019-02-28T11:40:43.806Z,16.90
2019-02-28T11:43:11.496Z,16.90
2019-02-28T11:45:43.537Z,16.90
2019-02-28T11:48:18.743Z,17.00
2019-02-28T11:50:45.125Z,17.20
2019-02-28T11:53:13.986Z,17.40
2019-02-28T11:55:42.533Z,17.60
2019-02-28T11:58:16.645Z,17.70
2019-02-28T12:00:41.238Z,17.90
2019-02-28T12:03:09.698Z,18.10
2019-02-28T12:05:38.162Z,18.20
2019-02-28T12:08:10.441Z,18.20
2019-02-28T12:10:36.955Z,18.30
2019-02-28T12:13:05.422Z,18.30
2019-02-28T12:15:39.350Z,18.40
2019-02-28T12:18:07.827Z,18.50
2019-02-28T12:20:36.218Z,18.70
2019-02-28T12:23:04.802Z,18.80
2019-02-28T12:25:33.268Z,18.80
2019-02-28T12:28:02.706Z,18.90
2019-02-28T12:30:34.068Z,18.90
2019-02-28T12:33:02.472Z,18.80
2019-02-28T12:35:37.520Z,18.70
2019-02-28T12:38:01.278Z,18.70
2019-02-28T12:40:32.774Z,18.50
2019-02-28T12:43:01.532Z,18.40
2019-02-28T12:45:32.899Z,18.30
2019-02-28T12:48:01.523Z,18.20
2019-02-28T12:50:30.376Z,18.20
2019-02-28T12:52:59.174Z,18.10
2019-02-28T12:55:27.584Z,18.00
2019-02-28T12:57:57.764Z,18.00
2019-02-28T13:00:35.030Z,18.00
2019-02-28T13:03:03.514Z,18.00
2019-02-28T13:05:31.979Z,18.00
2019-02-28T13:08:00.471Z,17.90
2019-02-28T13:10:31.049Z,17.90
2019-02-28T13:13:06.311Z,17.90
2019-02-28T13:15:29.367Z,17.90
2019-02-28T13:17:57.838Z,18.00
2019-02-28T13:20:33.714Z,18.00
2019-02-28T13:23:01.623Z,18.00
2019-02-28T13:25:30.014Z,18.00
2019-02-28T13:27:58.494Z,18.00
2019-02-28T13:30:27.955Z,18.00
2019-02-28T13:32:56.966Z,18.10
2019-02-28T13:35:33.644Z,18.10
2019-02-28T13:38:02.050Z,18.20
2019-02-28T13:40:30.461Z,18.10
2019-02-28T13:42:58.862Z,18.10
2019-02-28T13:45:28.030Z,18.10
2019-02-28T13:47:56.521Z,18.10
2019-02-28T13:50:35.871Z,18.10
2019-02-28T13:53:17.257Z,18.10
2019-02-28T13:55:35.886Z,18.10
2019-02-28T13:58:04.675Z,18.10
2019-02-28T14:00:35.486Z,18.10
2019-02-28T14:03:11.710Z,18.10
2019-02-28T14:05:41.492Z,18.00
2019-02-28T14:08:12.023Z,18.10
2019-02-28T14:10:40.403Z,18.10
2019-02-28T14:13:09.072Z,18.00
2019-02-28T14:15:42.987Z,18.10
2019-02-28T14:18:12.042Z,18.10
2019-02-28T14:20:40.446Z,18.10
2019-02-28T14:23:09.218Z,18.10
2019-02-28T14:25:39.814Z,18.20
2019-02-28T14:28:07.850Z,18.20
2019-02-28T14:30:36.258Z,18.20
2019-02-28T14:33:05.007Z,18.10
2019-02-28T14:35:35.479Z,18.10
2019-02-28T14:38:03.596Z,18.10
2019-02-28T14:40:32.019Z,18.10
2019-02-28T14:43:00.424Z,18.10
2019-02-28T14:45:42.943Z,18.20
2019-02-28T14:48:10.656Z,18.20
2019-02-28T14:50:39.162Z,18.20
2019-02-28T14:53:13.328Z,18.20
2019-02-28T14:55:38.023Z,18.10
2019-02-28T14:58:06.420Z,18.10
2019-02-28T15:00:35.556Z,18.10
2019-02-28T15:03:04.200Z,18.10
2019-02-28T15:05:41.346Z,18.10
2019-02-28T15:08:11.781Z,18.10
2019-02-28T15:10:40.735Z,18.10
2019-02-28T15:13:09.318Z,18.10
2019-02-28T15:15:37.856Z,18.10
2019-02-28T15:18:06.262Z,18.00
2019-02-28T15:20:34.752Z,18.00
2019-02-28T15:23:03.151Z,18.00
2019-02-28T15:25:31.649Z,17.90
2019-02-28T15:28:00.132Z,17.90
2019-02-28T15:30:36.674Z,17.70
2019-02-28T15:33:05.067Z,17.60
2019-02-28T15:35:33.487Z,17.50
2019-02-28T15:38:01.941Z,17.50
2019-02-28T15:40:33.006Z,17.40
2019-02-28T15:43:01.470Z,17.30
2019-02-28T15:45:29.951Z,17.20
2019-02-28T15:47:58.802Z,17.00
2019-02-28T15:50:28.786Z,16.90
2019-02-28T15:52:57.774Z,16.80
2019-02-28T15:55:26.826Z,16.80
2019-02-28T15:57:55.238Z,16.60
2019-02-28T16:00:31.485Z,16.50
2019-02-28T16:03:00.176Z,16.40
2019-02-28T16:05:31.401Z,16.30
2019-02-28T16:07:59.853Z,16.10
2019-02-28T16:10:32.981Z,16.00
2019-02-28T16:13:01.532Z,15.90
2019-02-28T16:15:30.047Z,15.80
2019-02-28T16:17:58.629Z,15.60
2019-02-28T16:20:28.690Z,15.50
2019-02-28T16:22:57.711Z,15.40
2019-02-28T16:25:36.927Z,15.30
2019-02-28T16:28:08.476Z,15.20
2019-02-28T16:30:38.455Z,15.20
2019-02-28T16:33:07.246Z,15.00
2019-02-28T16:35:35.712Z,15.00
2019-02-28T16:38:06.559Z,14.90
2019-02-28T16:40:34.310Z,14.80
2019-02-28T16:43:02.727Z,14.70
2019-02-28T16:45:47.847Z,14.60
2019-02-28T16:48:16.270Z,14.40
2019-02-28T16:50:44.674Z,14.30
2019-02-28T16:53:16.191Z,14.20
2019-02-28T16:55:43.408Z,14.20
2019-02-28T16:58:11.900Z,14.10
2019-02-28T17:00:42.635Z,14.00
2019-02-28T17:03:10.623Z,14.00
2019-02-28T17:05:39.010Z,13.90
2019-02-28T17:08:07.866Z,13.80
2019-02-28T17:10:40.081Z,13.70
2019-02-28T17:13:28.690Z,13.60
2019-02-28T17:16:02.470Z,13.50
2019-02-28T17:18:32.817Z,13.50
2019-02-28T17:21:01.230Z,13.40
2019-02-28T17:23:29.627Z,13.30
2019-02-28T17:25:58.101Z,13.30
2019-02-28T17:28:46.596Z,13.20
2019-02-28T17:31:18.699Z,13.10
2019-02-28T17:33:47.953Z,13.00
2019-02-28T17:36:16.450Z,12.90
2019-02-28T17:38:44.871Z,12.80
2019-02-28T17:41:13.286Z,12.70
2019-02-28T17:43:43.429Z,12.60
2019-02-28T17:46:14.899Z,12.50
2019-02-28T17:48:55.380Z,12.50
2019-02-28T17:51:29.862Z,12.40
2019-02-28T17:54:04.282Z,12.30
2019-02-28T17:57:10.754Z,12.20
2019-02-28T17:59:59.658Z,12.10
2019-02-28T18:02:47.512Z,12.00
2019-02-28T18:05:38.711Z,11.90
2019-02-28T18:08:19.289Z,11.80
2019-02-28T18:11:08.703Z,11.80
2019-02-28T18:13:56.591Z,11.70
2019-02-28T18:16:44.574Z,11.70
2019-02-28T18:19:33.585Z,11.70
2019-02-28T18:22:16.146Z,11.60
2019-02-28T18:25:01.396Z,11.70
2019-02-28T18:28:01.275Z,11.80
2019-02-28T18:30:50.817Z,11.80
2019-02-28T18:33:19.621Z,11.80
2019-02-28T18:35:48.218Z,11.90
2019-02-28T18:38:16.623Z,11.90
2019-02-28T18:40:45.028Z,11.90
2019-02-28T18:43:13.534Z,11.90
2019-02-28T18:45:41.933Z,11.90
2019-02-28T18:48:11.404Z,11.90
2019-02-28T18:50:59.231Z,11.80
2019-02-28T18:53:27.883Z,11.80
2019-02-28T18:55:56.297Z,11.80
2019-02-28T18:58:24.760Z,11.70
2019-02-28T19:00:53.287Z,11.70
2019-02-28T19:03:21.686Z,11.70
2019-02-28T19:05:50.135Z,11.70
2019-02-28T19:08:18.615Z,11.60
2019-02-28T19:10:47.085Z,11.60
2019-02-28T19:13:15.486Z,11.60
2019-02-28T19:15:45.214Z,11.60
2019-02-28T19:18:13.886Z,11.50
2019-02-28T19:20:42.354Z,11.50
2019-02-28T19:23:10.827Z,11.50
2019-02-28T19:25:39.531Z,11.50
2019-02-28T19:28:07.921Z,11.40
2019-02-28T19:30:36.566Z,11.40
2019-02-28T19:33:05.262Z,11.40
2019-02-28T19:35:37.263Z,11.40
2019-02-28T19:38:05.644Z,11.30
2019-02-28T19:40:34.053Z,11.30
2019-02-28T19:43:02.451Z,11.30
2019-02-28T19:45:37.015Z,11.30
2019-02-28T19:48:05.478Z,11.30
2019-02-28T19:50:33.871Z,11.20
2019-02-28T19:53:02.288Z,11.10
2019-02-28T19:55:30.734Z,11.00
2019-02-28T19:57:59.187Z,10.90
2019-02-28T20:00:27.594Z,10.80
2019-02-28T20:02:56.084Z,10.70
2019-02-28T20:05:24.745Z,10.60
2019-02-28T20:07:53.162Z,10.40
2019-02-28T20:10:22.098Z,10.20
2019-02-28T20:12:50.486Z,10.10
2019-02-28T20:15:22.243Z,10.00
2019-02-28T20:17:50.627Z,9.90
2019-02-28T20:20:24.302Z,9.90
2019-02-28T20:22:52.706Z,9.80
2019-02-28T20:25:21.148Z,9.80
2019-02-28T20:27:49.538Z,9.80
2019-02-28T20:30:19.538Z,10.00
2019-02-28T20:32:47.950Z,10.10
2019-02-28T20:35:25.925Z,10.10
2019-02-28T20:37:46.706Z,10.20
2019-02-28T20:40:18.139Z,10.20
2019-02-28T20:42:46.538Z,10.30
2019-02-28T20:45:14.961Z,10.30
2019-02-28T20:47:43.454Z,10.30
2019-02-28T20:50:18.294Z,10.30
2019-02-28T20:52:46.703Z,10.30
2019-02-28T20:55:15.226Z,10.30
2019-02-28T20:57:43.635Z,10.30
2019-02-28T21:00:15.622Z,10.30
2019-02-28T21:02:44.105Z,10.30
2019-02-28T21:05:12.511Z,10.30
2019-02-28T21:07:40.941Z,10.30
2019-02-28T21:10:10.322Z,10.30
2019-02-28T21:12:38.885Z,10.30
2019-02-28T21:15:10.035Z,10.30
2019-02-28T21:17:38.539Z,10.20
2019-02-28T21:20:14.755Z,10.20
2019-02-28T21:22:43.202Z,10.20
2019-02-28T21:25:18.767Z,10.20
2019-02-28T21:27:47.214Z,10.10
2019-02-28T21:30:21.278Z,10.10
2019-02-28T21:32:49.751Z,10.10
2019-02-28T21:35:18.498Z,10.10
2019-02-28T21:37:48.021Z,10.00
2019-02-28T21:40:18.348Z,10.00
2019-02-28T21:42:46.746Z,10.00
2019-02-28T21:45:24.326Z,10.00
2019-02-28T21:47:52.744Z,10.00
2019-02-28T21:50:21.239Z,10.00
2019-02-28T21:52:49.846Z,10.00
2019-02-28T21:55:18.622Z,10.00
2019-02-28T21:57:47.029Z,10.10
2019-02-28T22:00:24.258Z,10.10
2019-02-28T22:02:52.675Z,10.20
2019-02-28T22:05:24.386Z,10.20
2019-02-28T22:07:52.966Z,10.20
2019-02-28T22:10:21.375Z,10.20
2019-02-28T22:12:49.861Z,10.20
2019-02-28T22:15:25.683Z,10.20
2019-02-28T22:17:54.233Z,10.30
2019-02-28T22:20:23.070Z,10.30
2019-02-28T22:22:51.628Z,10.30
2019-02-28T22:25:20.078Z,10.30
2019-02-28T22:27:48.548Z,10.40
2019-02-28T22:30:33.224Z,10.40
2019-02-28T22:33:06.363Z,10.40
2019-02-28T22:35:39.142Z,10.40
2019-02-28T22:38:07.607Z,10.40
2019-02-28T22:40:36.002Z,10.40
2019-02-28T22:43:04.427Z,10.40
2019-02-28T22:45:32.815Z,10.40
2019-02-28T22:48:01.246Z,10.40
2019-02-28T22:50:29.728Z,10.40
2019-02-28T22:52:58.132Z,10.40
2019-02-28T22:55:26.555Z,10.40
2019-02-28T22:57:54.987Z,10.40
2019-02-28T23:00:56.354Z,10.40
2019-02-28T23:03:25.090Z,10.40
2019-02-28T23:05:53.806Z,10.40
2019-02-28T23:08:22.206Z,10.40
2019-02-28T23:10:50.657Z,10.40
2019-02-28T23:13:19.502Z,10.30
2019-02-28T23:15:47.903Z,10.30
2019-02-28T23:18:16.309Z,10.20
2019-02-28T23:20:44.816Z,10.10
2019-02-28T23:23:13.471Z,10.10
2019-02-28T23:25:41.862Z,10.00
2019-02-28T23:28:16.254Z,10.00
2019-02-28T23:31:18.995Z,9.90
2019-02-28T23:33:47.711Z,9.80
2019-02-28T23:36:16.129Z,9.80
2019-02-28T23:38:44.514Z,9.80
2019-02-28T23:41:12.910Z,9.70
2019-02-28T23:43:41.314Z,9.70
2019-02-28T23:46:09.706Z,9.70
2019-02-28T23:48:38.109Z,9.60
2019-02-28T23:51:06.522Z,9.40
2019-02-28T23:53:34.909Z,9.30
2019-02-28T23:56:03.559Z,9.20
2019-02-28T23:58:31.966Z,9.10
